sensor_id;sensor_type;location;lat;lon;timestamp;P1;durP1;ratioP1;P2;durP2;ratioP2
6727;SDS011;3401;52.504;13.430;2022-10-16T00:01:34;2.43;;;1.50;;
6727;SDS011;3401;52.504;13.430;2022-10-16T00:04:02;2.80;;;1.77;;
6727;SDS011;3401;52.504;13.430;2022-10-16T00:06:30;1.83;;;1.33;;
6727;SDS011;3401;52.504;13.430;2022-10-16T00:08:59;3.20;;;1.87;;
6727;SDS011;3401;52.504;13.430;2022-10-16T00:11:29;9.53;;;1.90;;
6727;SDS011;3401;52.504;13.430;2022-10-16T00:14:00;1.60;;;1.50;;
6727;SDS011;3401;52.504;13.430;2022-10-16T00:16:29;1.80;;;1.70;;
6727;SDS011;3401;52.504;13.430;2022-10-16T00:18:58;1.97;;;1.87;;
6727;SDS011;3401;52.504;13.430;2022-10-16T00:21:27;1.70;;;1.60;;
6727;SDS011;3401;52.504;13.430;2022-10-16T00:23:57;1.50;;;1.40;;
6727;SDS011;3401;52.504;13.430;2022-10-16T00:26:27;1.70;;;1.57;;
6727;SDS011;3401;52.504;13.430;2022-10-16T00:28:58;1.60;;;1.50;;
6727;SDS011;3401;52.504;13.430;2022-10-16T00:31:26;1.70;;;1.60;;
6727;SDS011;3401;52.504;13.430;2022-10-16T00:33:55;2.50;;;1.63;;
6727;SDS011;3401;52.504;13.430;2022-10-16T00:36:23;2.83;;;1.93;;
6727;SDS011;3401;52.504;13.430;2022-10-16T00:38:53;1.50;;;1.40;;
6727;SDS011;3401;52.504;13.430;2022-10-16T00:41:22;2.53;;;1.50;;
6727;SDS011;3401;52.504;13.430;2022-10-16T00:43:53;1.83;;;1.50;;
6727;SDS011;3401;52.504;13.430;2022-10-16T00:46:23;1.43;;;1.20;;
6727;SDS011;3401;52.504;13.430;2022-10-16T00:48:54;2.10;;;1.60;;
6727;SDS011;3401;52.504;13.430;2022-10-16T00:51:25;6.23;;;1.50;;
6727;SDS011;3401;52.504;13.430;2022-10-16T00:53:56;4.20;;;1.63;;
6727;SDS011;3401;52.504;13.430;2022-10-16T00:56:24;1.10;;;1.10;;
6727;SDS011;3401;52.504;13.430;2022-10-16T00:58:53;2.90;;;1.33;;
6727;SDS011;3401;52.504;13.430;2022-10-16T01:01:21;5.17;;;2.90;;
6727;SDS011;3401;52.504;13.430;2022-10-16T01:03:49;3.00;;;1.43;;
6727;SDS011;3401;52.504;13.430;2022-10-16T01:06:26;2.67;;;1.80;;
6727;SDS011;3401;52.504;13.430;2022-10-16T01:09:06;1.53;;;1.43;;
6727;SDS011;3401;52.504;13.430;2022-10-16T01:11:41;6.03;;;1.80;;
6727;SDS011;3401;52.504;13.430;2022-10-16T01:14:15;1.93;;;1.83;;
6727;SDS011;3401;52.504;13.430;2022-10-16T01:16:50;1.50;;;1.40;;
6727;SDS011;3401;52.504;13.430;2022-10-16T01:19:25;1.20;;;1.10;;
6727;SDS011;3401;52.504;13.430;2022-10-16T01:21:59;8.97;;;2.63;;
6727;SDS011;3401;52.504;13.430;2022-10-16T01:24:31;3.60;;;2.00;;
6727;SDS011;3401;52.504;13.430;2022-10-16T01:27:04;4.27;;;1.67;;
6727;SDS011;3401;52.504;13.430;2022-10-16T01:29:34;1.80;;;1.63;;
6727;SDS011;3401;52.504;13.430;2022-10-16T01:32:08;3.47;;;1.30;;
6727;SDS011;3401;52.504;13.430;2022-10-16T01:34:41;1.43;;;1.30;;
6727;SDS011;3401;52.504;13.430;2022-10-16T01:37:14;2.27;;;1.90;;
6727;SDS011;3401;52.504;13.430;2022-10-16T01:39:45;1.67;;;1.60;;
6727;SDS011;3401;52.504;13.430;2022-10-16T01:42:16;1.30;;;1.20;;
6727;SDS011;3401;52.504;13.430;2022-10-16T01:44:46;2.30;;;1.67;;
6727;SDS011;3401;52.504;13.430;2022-10-16T01:47:15;4.50;;;1.40;;
6727;SDS011;3401;52.504;13.430;2022-10-16T01:49:43;1.17;;;1.07;;
6727;SDS011;3401;52.504;13.430;2022-10-16T01:52:13;2.13;;;1.60;;
6727;SDS011;3401;52.504;13.430;2022-10-16T01:54:45;2.63;;;1.77;;
6727;SDS011;3401;52.504;13.430;2022-10-16T01:57:16;2.13;;;1.60;;
6727;SDS011;3401;52.504;13.430;2022-10-16T01:59:49;2.17;;;1.60;;
6727;SDS011;3401;52.504;13.430;2022-10-16T02:02:19;3.30;;;1.87;;
6727;SDS011;3401;52.504;13.430;2022-10-16T02:04:48;1.97;;;1.50;;
6727;SDS011;3401;52.504;13.430;2022-10-16T02:07:20;1.47;;;1.27;;
6727;SDS011;3401;52.504;13.430;2022-10-16T02:09:48;7.43;;;2.63;;
6727;SDS011;3401;52.504;13.430;2022-10-16T02:12:19;1.47;;;1.10;;
6727;SDS011;3401;52.504;13.430;2022-10-16T02:14:50;2.17;;;1.50;;
6727;SDS011;3401;52.504;13.430;2022-10-16T02:17:19;1.60;;;1.50;;
6727;SDS011;3401;52.504;13.430;2022-10-16T02:19:48;4.00;;;1.60;;
6727;SDS011;3401;52.504;13.430;2022-10-16T02:22:18;2.00;;;1.50;;
6727;SDS011;3401;52.504;13.430;2022-10-16T02:24:50;2.33;;;1.50;;
6727;SDS011;3401;52.504;13.430;2022-10-16T02:27:24;2.40;;;1.50;;
6727;SDS011;3401;52.504;13.430;2022-10-16T02:29:55;6.43;;;1.47;;
6727;SDS011;3401;52.504;13.430;2022-10-16T02:32:27;1.00;;;1.00;;
6727;SDS011;3401;52.504;13.430;2022-10-16T02:35:00;1.20;;;1.10;;
6727;SDS011;3401;52.504;13.430;2022-10-16T02:37:28;5.30;;;1.37;;
6727;SDS011;3401;52.504;13.430;2022-10-16T02:39:56;2.43;;;1.07;;
6727;SDS011;3401;52.504;13.430;2022-10-16T02:42:31;2.97;;;1.50;;
6727;SDS011;3401;52.504;13.430;2022-10-16T02:45:01;6.13;;;1.23;;
6727;SDS011;3401;52.504;13.430;2022-10-16T02:47:30;1.30;;;1.20;;
6727;SDS011;3401;52.504;13.430;2022-10-16T02:49:58;1.97;;;1.43;;
6727;SDS011;3401;52.504;13.430;2022-10-16T02:52:26;1.40;;;1.30;;
6727;SDS011;3401;52.504;13.430;2022-10-16T02:54:55;2.30;;;1.37;;
6727;SDS011;3401;52.504;13.430;2022-10-16T02:57:22;1.87;;;1.53;;
6727;SDS011;3401;52.504;13.430;2022-10-16T02:59:53;8.50;;;1.33;;
6727;SDS011;3401;52.504;13.430;2022-10-16T03:02:21;1.80;;;1.63;;
6727;SDS011;3401;52.504;13.430;2022-10-16T03:04:49;1.53;;;1.43;;
6727;SDS011;3401;52.504;13.430;2022-10-16T03:07:17;1.50;;;1.40;;
6727;SDS011;3401;52.504;13.430;2022-10-16T03:09:45;1.53;;;1.43;;
6727;SDS011;3401;52.504;13.430;2022-10-16T03:12:13;1.40;;;1.30;;
6727;SDS011;3401;52.504;13.430;2022-10-16T03:14:41;1.43;;;1.33;;
6727;SDS011;3401;52.504;13.430;2022-10-16T03:17:10;1.50;;;1.40;;
6727;SDS011;3401;52.504;13.430;2022-10-16T03:19:39;1.40;;;1.30;;
6727;SDS011;3401;52.504;13.430;2022-10-16T03:22:07;1.70;;;1.50;;
6727;SDS011;3401;52.504;13.430;2022-10-16T03:24:35;1.70;;;1.60;;
6727;SDS011;3401;52.504;13.430;2022-10-16T03:27:02;1.90;;;1.50;;
6727;SDS011;3401;52.504;13.430;2022-10-16T03:29:30;1.70;;;1.60;;
6727;SDS011;3401;52.504;13.430;2022-10-16T03:31:59;3.00;;;1.60;;
6727;SDS011;3401;52.504;13.430;2022-10-16T03:34:29;2.80;;;1.70;;
6727;SDS011;3401;52.504;13.430;2022-10-16T03:36:57;1.97;;;1.87;;
6727;SDS011;3401;52.504;13.430;2022-10-16T03:39:26;1.40;;;1.30;;
6727;SDS011;3401;52.504;13.430;2022-10-16T03:41:54;1.60;;;1.30;;
6727;SDS011;3401;52.504;13.430;2022-10-16T03:44:22;2.30;;;1.63;;
6727;SDS011;3401;52.504;13.430;2022-10-16T03:46:51;1.60;;;1.50;;
6727;SDS011;3401;52.504;13.430;2022-10-16T03:49:19;2.57;;;1.53;;
6727;SDS011;3401;52.504;13.430;2022-10-16T03:51:49;1.90;;;1.70;;
6727;SDS011;3401;52.504;13.430;2022-10-16T03:54:17;3.57;;;1.97;;
6727;SDS011;3401;52.504;13.430;2022-10-16T03:56:45;2.17;;;1.97;;
6727;SDS011;3401;52.504;13.430;2022-10-16T03:59:13;1.60;;;1.50;;
6727;SDS011;3401;52.504;13.430;2022-10-16T04:01:41;2.77;;;1.80;;
6727;SDS011;3401;52.504;13.430;2022-10-16T04:04:09;1.40;;;1.30;;
6727;SDS011;3401;52.504;13.430;2022-10-16T04:06:37;4.10;;;2.33;;
6727;SDS011;3401;52.504;13.430;2022-10-16T04:09:06;1.63;;;1.43;;
6727;SDS011;3401;52.504;13.430;2022-10-16T04:11:34;1.80;;;1.70;;
6727;SDS011;3401;52.504;13.430;2022-10-16T04:14:02;1.73;;;1.63;;
6727;SDS011;3401;52.504;13.430;2022-10-16T04:16:30;1.40;;;1.17;;
6727;SDS011;3401;52.504;13.430;2022-10-16T04:18:58;1.80;;;1.70;;
6727;SDS011;3401;52.504;13.430;2022-10-16T04:21:26;9.70;;;2.20;;
6727;SDS011;3401;52.504;13.430;2022-10-16T04:23:54;2.30;;;2.10;;
6727;SDS011;3401;52.504;13.430;2022-10-16T04:26:23;1.50;;;1.40;;
6727;SDS011;3401;52.504;13.430;2022-10-16T04:28:51;1.70;;;1.60;;
6727;SDS011;3401;52.504;13.430;2022-10-16T04:31:20;2.17;;;1.93;;
6727;SDS011;3401;52.504;13.430;2022-10-16T04:33:48;4.00;;;1.87;;
6727;SDS011;3401;52.504;13.430;2022-10-16T04:36:16;1.43;;;1.33;;
6727;SDS011;3401;52.504;13.430;2022-10-16T04:38:44;2.67;;;2.10;;
6727;SDS011;3401;52.504;13.430;2022-10-16T04:41:12;2.50;;;2.07;;
6727;SDS011;3401;52.504;13.430;2022-10-16T04:43:41;2.60;;;1.93;;
6727;SDS011;3401;52.504;13.430;2022-10-16T04:46:09;1.90;;;1.80;;
6727;SDS011;3401;52.504;13.430;2022-10-16T04:48:36;1.67;;;1.60;;
6727;SDS011;3401;52.504;13.430;2022-10-16T04:51:05;2.37;;;1.80;;
6727;SDS011;3401;52.504;13.430;2022-10-16T04:53:32;1.80;;;1.70;;
6727;SDS011;3401;52.504;13.430;2022-10-16T04:56:00;1.80;;;1.70;;
6727;SDS011;3401;52.504;13.430;2022-10-16T04:58:30;2.30;;;2.10;;
6727;SDS011;3401;52.504;13.430;2022-10-16T05:00:59;2.83;;;2.40;;
6727;SDS011;3401;52.504;13.430;2022-10-16T05:03:27;2.47;;;2.13;;
6727;SDS011;3401;52.504;13.430;2022-10-16T05:05:56;3.70;;;2.37;;
6727;SDS011;3401;52.504;13.430;2022-10-16T05:08:23;2.20;;;2.00;;
6727;SDS011;3401;52.504;13.430;2022-10-16T05:10:51;3.67;;;2.10;;
6727;SDS011;3401;52.504;13.430;2022-10-16T05:13:19;1.73;;;1.63;;
6727;SDS011;3401;52.504;13.430;2022-10-16T05:15:47;1.90;;;1.80;;
6727;SDS011;3401;52.504;13.430;2022-10-16T05:18:17;1.70;;;1.60;;
6727;SDS011;3401;52.504;13.430;2022-10-16T05:20:45;2.20;;;2.00;;
6727;SDS011;3401;52.504;13.430;2022-10-16T05:23:13;4.03;;;2.13;;
6727;SDS011;3401;52.504;13.430;2022-10-16T05:25:41;1.43;;;1.40;;
6727;SDS011;3401;52.504;13.430;2022-10-16T05:28:09;4.20;;;2.30;;
6727;SDS011;3401;52.504;13.430;2022-10-16T05:30:37;4.03;;;2.23;;
6727;SDS011;3401;52.504;13.430;2022-10-16T05:33:05;4.53;;;2.33;;
6727;SDS011;3401;52.504;13.430;2022-10-16T05:35:35;3.77;;;2.53;;
6727;SDS011;3401;52.504;13.430;2022-10-16T05:38:03;3.73;;;2.37;;
6727;SDS011;3401;52.504;13.430;2022-10-16T05:40:31;2.50;;;1.87;;
6727;SDS011;3401;52.504;13.430;2022-10-16T05:42:59;3.20;;;2.70;;
6727;SDS011;3401;52.504;13.430;2022-10-16T05:45:27;2.80;;;2.27;;
6727;SDS011;3401;52.504;13.430;2022-10-16T05:47:55;2.20;;;2.00;;
6727;SDS011;3401;52.504;13.430;2022-10-16T05:50:23;2.63;;;2.43;;
6727;SDS011;3401;52.504;13.430;2022-10-16T05:52:53;2.50;;;2.13;;
6727;SDS011;3401;52.504;13.430;2022-10-16T05:55:21;7.47;;;2.90;;
6727;SDS011;3401;52.504;13.430;2022-10-16T05:57:49;2.57;;;2.37;;
6727;SDS011;3401;52.504;13.430;2022-10-16T06:00:17;2.70;;;2.30;;
6727;SDS011;3401;52.504;13.430;2022-10-16T06:02:45;2.90;;;2.00;;
6727;SDS011;3401;52.504;13.430;2022-10-16T06:05:13;2.93;;;2.47;;
6727;SDS011;3401;52.504;13.430;2022-10-16T06:07:42;2.10;;;2.00;;
6727;SDS011;3401;52.504;13.430;2022-10-16T06:10:11;2.90;;;2.00;;
6727;SDS011;3401;52.504;13.430;2022-10-16T06:12:39;3.20;;;1.80;;
6727;SDS011;3401;52.504;13.430;2022-10-16T06:15:08;3.00;;;2.00;;
6727;SDS011;3401;52.504;13.430;2022-10-16T06:17:37;1.80;;;1.70;;
6727;SDS011;3401;52.504;13.430;2022-10-16T06:20:05;1.90;;;1.80;;
6727;SDS011;3401;52.504;13.430;2022-10-16T06:22:33;1.90;;;1.70;;
6727;SDS011;3401;52.504;13.430;2022-10-16T06:25:03;1.90;;;1.67;;
6727;SDS011;3401;52.504;13.430;2022-10-16T06:27:33;2.43;;;2.27;;
6727;SDS011;3401;52.504;13.430;2022-10-16T06:30:01;1.50;;;1.40;;
6727;SDS011;3401;52.504;13.430;2022-10-16T06:32:30;2.30;;;2.10;;
6727;SDS011;3401;52.504;13.430;2022-10-16T06:34:58;1.67;;;1.57;;
6727;SDS011;3401;52.504;13.430;2022-10-16T06:37:26;2.53;;;2.33;;
6727;SDS011;3401;52.504;13.430;2022-10-16T06:39:54;10.53;;;7.80;;
6727;SDS011;3401;52.504;13.430;2022-10-16T06:42:22;12.43;;;6.67;;
6727;SDS011;3401;52.504;13.430;2022-10-16T06:44:52;1.53;;;1.43;;
6727;SDS011;3401;52.504;13.430;2022-10-16T06:47:20;3.10;;;2.70;;
6727;SDS011;3401;52.504;13.430;2022-10-16T06:49:49;2.80;;;1.80;;
6727;SDS011;3401;52.504;13.430;2022-10-16T06:52:19;1.00;;;1.00;;
6727;SDS011;3401;52.504;13.430;2022-10-16T06:54:47;9.30;;;1.70;;
6727;SDS011;3401;52.504;13.430;2022-10-16T06:57:18;2.93;;;1.53;;
6727;SDS011;3401;52.504;13.430;2022-10-16T06:59:46;1.37;;;1.30;;
6727;SDS011;3401;52.504;13.430;2022-10-16T07:02:22;1.40;;;1.30;;
6727;SDS011;3401;52.504;13.430;2022-10-16T07:04:51;2.33;;;1.87;;
6727;SDS011;3401;52.504;13.430;2022-10-16T07:07:19;1.80;;;1.30;;
6727;SDS011;3401;52.504;13.430;2022-10-16T07:09:47;2.40;;;1.67;;
6727;SDS011;3401;52.504;13.430;2022-10-16T07:12:15;1.37;;;1.07;;
6727;SDS011;3401;52.504;13.430;2022-10-16T07:14:42;1.10;;;1.10;;
6727;SDS011;3401;52.504;13.430;2022-10-16T07:17:12;2.57;;;0.80;;
6727;SDS011;3401;52.504;13.430;2022-10-16T07:19:42;10.70;;;1.30;;
6727;SDS011;3401;52.504;13.430;2022-10-16T07:22:10;1.00;;;1.00;;
6727;SDS011;3401;52.504;13.430;2022-10-16T07:24:38;2.73;;;1.27;;
6727;SDS011;3401;52.504;13.430;2022-10-16T07:27:06;1.23;;;1.20;;
6727;SDS011;3401;52.504;13.430;2022-10-16T07:29:34;1.15;;;1.15;;
6727;SDS011;3401;52.504;13.430;2022-10-16T07:32:02;2.30;;;1.70;;
6727;SDS011;3401;52.504;13.430;2022-10-16T07:34:30;1.20;;;1.00;;
6727;SDS011;3401;52.504;13.430;2022-10-16T07:37:00;1.00;;;1.00;;
6727;SDS011;3401;52.504;13.430;2022-10-16T07:39:28;1.00;;;0.90;;
6727;SDS011;3401;52.504;13.430;2022-10-16T07:41:56;1.30;;;1.20;;
6727;SDS011;3401;52.504;13.430;2022-10-16T07:44:26;1.10;;;1.10;;
6727;SDS011;3401;52.504;13.430;2022-10-16T07:46:54;1.37;;;1.27;;
6727;SDS011;3401;52.504;13.430;2022-10-16T07:49:22;0.80;;;0.80;;
6727;SDS011;3401;52.504;13.430;2022-10-16T07:51:50;0.77;;;0.77;;
6727;SDS011;3401;52.504;13.430;2022-10-16T07:54:19;1.20;;;1.10;;
6727;SDS011;3401;52.504;13.430;2022-10-16T07:56:47;1.93;;;1.20;;
6727;SDS011;3401;52.504;13.430;2022-10-16T07:59:15;1.43;;;1.20;;
6727;SDS011;3401;52.504;13.430;2022-10-16T08:01:50;2.53;;;1.20;;
6727;SDS011;3401;52.504;13.430;2022-10-16T08:04:19;1.00;;;1.00;;
6727;SDS011;3401;52.504;13.430;2022-10-16T08:06:47;0.90;;;0.90;;
6727;SDS011;3401;52.504;13.430;2022-10-16T08:09:16;2.30;;;1.30;;
6727;SDS011;3401;52.504;13.430;2022-10-16T08:11:45;4.77;;;1.03;;
6727;SDS011;3401;52.504;13.430;2022-10-16T08:14:13;0.93;;;0.83;;
6727;SDS011;3401;52.504;13.430;2022-10-16T08:16:41;1.03;;;0.93;;
6727;SDS011;3401;52.504;13.430;2022-10-16T08:19:09;1.57;;;1.20;;
6727;SDS011;3401;52.504;13.430;2022-10-16T08:21:37;0.87;;;0.73;;
6727;SDS011;3401;52.504;13.430;2022-10-16T08:24:05;1.17;;;1.07;;
6727;SDS011;3401;52.504;13.430;2022-10-16T08:26:33;1.50;;;1.10;;
6727;SDS011;3401;52.504;13.430;2022-10-16T08:29:06;5.33;;;1.10;;
6727;SDS011;3401;52.504;13.430;2022-10-16T08:31:34;0.90;;;0.90;;
6727;SDS011;3401;52.504;13.430;2022-10-16T08:34:03;1.30;;;1.20;;
6727;SDS011;3401;52.504;13.430;2022-10-16T08:36:31;1.10;;;1.00;;
6727;SDS011;3401;52.504;13.430;2022-10-16T08:38:59;2.43;;;0.73;;
6727;SDS011;3401;52.504;13.430;2022-10-16T08:41:33;1.03;;;1.03;;
6727;SDS011;3401;52.504;13.430;2022-10-16T08:47:47;1.27;;;1.17;;
6727;SDS011;3401;52.504;13.430;2022-10-16T08:50:20;2.37;;;0.90;;
6727;SDS011;3401;52.504;13.430;2022-10-16T08:52:51;1.90;;;0.80;;
6727;SDS011;3401;52.504;13.430;2022-10-16T08:55:24;0.80;;;0.80;;
6727;SDS011;3401;52.504;13.430;2022-10-16T08:57:58;4.00;;;1.10;;
6727;SDS011;3401;52.504;13.430;2022-10-16T09:00:27;0.73;;;0.73;;
6727;SDS011;3401;52.504;13.430;2022-10-16T09:03:03;0.80;;;0.80;;
6727;SDS011;3401;52.504;13.430;2022-10-16T09:08:26;1.43;;;0.80;;
6727;SDS011;3401;52.504;13.430;2022-10-16T09:11:02;1.13;;;1.03;;
6727;SDS011;3401;52.504;13.430;2022-10-16T09:13:35;1.20;;;1.10;;
6727;SDS011;3401;52.504;13.430;2022-10-16T09:16:12;0.83;;;0.80;;
6727;SDS011;3401;52.504;13.430;2022-10-16T09:18:47;0.67;;;0.67;;
6727;SDS011;3401;52.504;13.430;2022-10-16T09:21:21;1.47;;;1.00;;
6727;SDS011;3401;52.504;13.430;2022-10-16T09:23:51;0.80;;;0.70;;
6727;SDS011;3401;52.504;13.430;2022-10-16T09:26:19;10.60;;;0.87;;
6727;SDS011;3401;52.504;13.430;2022-10-16T09:28:48;0.80;;;0.80;;
6727;SDS011;3401;52.504;13.430;2022-10-16T09:31:22;1.00;;;0.73;;
6727;SDS011;3401;52.504;13.430;2022-10-16T09:33:55;0.87;;;0.87;;
6727;SDS011;3401;52.504;13.430;2022-10-16T09:36:27;1.53;;;1.30;;
6727;SDS011;3401;52.504;13.430;2022-10-16T09:39:04;4.67;;;0.80;;
6727;SDS011;3401;52.504;13.430;2022-10-16T09:41:39;0.63;;;0.63;;
6727;SDS011;3401;52.504;13.430;2022-10-16T09:44:15;0.70;;;0.67;;
6727;SDS011;3401;52.504;13.430;2022-10-16T09:46:47;1.33;;;0.80;;
6727;SDS011;3401;52.504;13.430;2022-10-16T09:49:21;0.87;;;0.80;;
6727;SDS011;3401;52.504;13.430;2022-10-16T09:52:02;1.00;;;0.90;;
6727;SDS011;3401;52.504;13.430;2022-10-16T09:54:33;0.73;;;0.73;;
6727;SDS011;3401;52.504;13.430;2022-10-16T09:57:05;0.93;;;0.93;;
6727;SDS011;3401;52.504;13.430;2022-10-16T09:59:44;0.90;;;0.90;;
6727;SDS011;3401;52.504;13.430;2022-10-16T10:02:14;3.07;;;0.97;;
6727;SDS011;3401;52.504;13.430;2022-10-16T10:04:47;2.20;;;1.20;;
6727;SDS011;3401;52.504;13.430;2022-10-16T10:07:23;0.73;;;0.73;;
6727;SDS011;3401;52.504;13.430;2022-10-16T10:09:53;0.70;;;0.70;;
6727;SDS011;3401;52.504;13.430;2022-10-16T10:12:23;5.40;;;1.10;;
6727;SDS011;3401;52.504;13.430;2022-10-16T10:14:54;0.63;;;0.63;;
6727;SDS011;3401;52.504;13.430;2022-10-16T10:17:24;0.67;;;0.67;;
6727;SDS011;3401;52.504;13.430;2022-10-16T10:19:56;1.87;;;0.93;;
6727;SDS011;3401;52.504;13.430;2022-10-16T10:22:31;1.93;;;0.77;;
6727;SDS011;3401;52.504;13.430;2022-10-16T10:25:11;1.10;;;0.80;;
6727;SDS011;3401;52.504;13.430;2022-10-16T10:27:47;0.80;;;0.80;;
6727;SDS011;3401;52.504;13.430;2022-10-16T10:30:23;3.37;;;0.70;;
6727;SDS011;3401;52.504;13.430;2022-10-16T10:32:56;2.70;;;0.70;;
6727;SDS011;3401;52.504;13.430;2022-10-16T10:35:42;0.70;;;0.70;;
6727;SDS011;3401;52.504;13.430;2022-10-16T10:38:19;0.80;;;0.67;;
6727;SDS011;3401;52.504;13.430;2022-10-16T10:40:54;0.73;;;0.70;;
6727;SDS011;3401;52.504;13.430;2022-10-16T10:43:35;0.60;;;0.60;;
6727;SDS011;3401;52.504;13.430;2022-10-16T10:46:13;0.60;;;0.60;;
6727;SDS011;3401;52.504;13.430;2022-10-16T10:48:47;2.13;;;1.00;;
6727;SDS011;3401;52.504;13.430;2022-10-16T10:51:25;0.60;;;0.60;;
6727;SDS011;3401;52.504;13.430;2022-10-16T10:54:00;3.20;;;0.80;;
6727;SDS011;3401;52.504;13.430;2022-10-16T10:56:43;1.10;;;0.90;;
6727;SDS011;3401;52.504;13.430;2022-10-16T11:02:13;0.70;;;0.70;;
6727;SDS011;3401;52.504;13.430;2022-10-16T11:07:45;0.60;;;0.60;;
6727;SDS011;3401;52.504;13.430;2022-10-16T11:10:20;0.67;;;0.67;;
6727;SDS011;3401;52.504;13.430;2022-10-16T11:12:52;0.70;;;0.70;;
6727;SDS011;3401;52.504;13.430;2022-10-16T11:15:24;1.00;;;0.70;;
6727;SDS011;3401;52.504;13.430;2022-10-16T11:18:00;0.70;;;0.70;;
6727;SDS011;3401;52.504;13.430;2022-10-16T11:20:33;0.50;;;0.50;;
6727;SDS011;3401;52.504;13.430;2022-10-16T11:23:10;0.70;;;0.70;;
6727;SDS011;3401;52.504;13.430;2022-10-16T11:25:43;3.70;;;0.60;;
6727;SDS011;3401;52.504;13.430;2022-10-16T11:28:14;0.60;;;0.60;;
6727;SDS011;3401;52.504;13.430;2022-10-16T11:30:48;0.60;;;0.60;;
6727;SDS011;3401;52.504;13.430;2022-10-16T11:33:21;0.40;;;0.40;;
6727;SDS011;3401;52.504;13.430;2022-10-16T11:35:53;2.73;;;0.70;;
6727;SDS011;3401;52.504;13.430;2022-10-16T11:38:28;0.73;;;0.60;;
6727;SDS011;3401;52.504;13.430;2022-10-16T11:41:00;0.57;;;0.57;;
6727;SDS011;3401;52.504;13.430;2022-10-16T11:43:32;0.60;;;0.60;;
6727;SDS011;3401;52.504;13.430;2022-10-16T11:46:13;0.70;;;0.50;;
6727;SDS011;3401;52.504;13.430;2022-10-16T11:48:46;3.07;;;0.73;;
6727;SDS011;3401;52.504;13.430;2022-10-16T11:51:21;2.57;;;0.90;;
6727;SDS011;3401;52.504;13.430;2022-10-16T11:54:01;5.90;;;0.80;;
6727;SDS011;3401;52.504;13.430;2022-10-16T11:56:32;1.53;;;0.80;;
6727;SDS011;3401;52.504;13.430;2022-10-16T11:59:05;0.40;;;0.40;;
6727;SDS011;3401;52.504;13.430;2022-10-16T12:01:40;4.63;;;0.50;;
6727;SDS011;3401;52.504;13.430;2022-10-16T12:04:17;0.50;;;0.50;;
6727;SDS011;3401;52.504;13.430;2022-10-16T12:06:52;0.63;;;0.63;;
6727;SDS011;3401;52.504;13.430;2022-10-16T12:09:28;0.60;;;0.60;;
6727;SDS011;3401;52.504;13.430;2022-10-16T12:11:59;0.93;;;0.83;;
6727;SDS011;3401;52.504;13.430;2022-10-16T12:14:36;0.60;;;0.60;;
6727;SDS011;3401;52.504;13.430;2022-10-16T12:17:33;0.50;;;0.50;;
6727;SDS011;3401;52.504;13.430;2022-10-16T12:20:18;0.93;;;0.63;;
6727;SDS011;3401;52.504;13.430;2022-10-16T12:22:51;0.50;;;0.47;;
6727;SDS011;3401;52.504;13.430;2022-10-16T12:25:27;0.40;;;0.40;;
6727;SDS011;3401;52.504;13.430;2022-10-16T12:27:58;0.63;;;0.60;;
6727;SDS011;3401;52.504;13.430;2022-10-16T12:30:33;0.50;;;0.50;;
6727;SDS011;3401;52.504;13.430;2022-10-16T12:33:03;0.80;;;0.50;;
6727;SDS011;3401;52.504;13.430;2022-10-16T12:35:33;0.67;;;0.67;;
6727;SDS011;3401;52.504;13.430;2022-10-16T12:38:06;3.33;;;0.60;;
6727;SDS011;3401;52.504;13.430;2022-10-16T12:40:37;1.33;;;0.50;;
6727;SDS011;3401;52.504;13.430;2022-10-16T12:43:13;1.10;;;0.57;;
6727;SDS011;3401;52.504;13.430;2022-10-16T12:45:59;0.80;;;0.80;;
6727;SDS011;3401;52.504;13.430;2022-10-16T12:48:30;0.50;;;0.50;;
6727;SDS011;3401;52.504;13.430;2022-10-16T12:51:21;0.80;;;0.80;;
6727;SDS011;3401;52.504;13.430;2022-10-16T12:54:00;0.80;;;0.73;;
6727;SDS011;3401;52.504;13.430;2022-10-16T12:56:35;0.50;;;0.50;;
6727;SDS011;3401;52.504;13.430;2022-10-16T12:59:13;3.13;;;0.80;;
6727;SDS011;3401;52.504;13.430;2022-10-16T13:01:52;9.87;;;0.70;;
6727;SDS011;3401;52.504;13.430;2022-10-16T13:04:30;0.50;;;0.47;;
6727;SDS011;3401;52.504;13.430;2022-10-16T13:07:08;4.13;;;0.90;;
6727;SDS011;3401;52.504;13.430;2022-10-16T13:09:52;0.70;;;0.70;;
6727;SDS011;3401;52.504;13.430;2022-10-16T13:15:41;0.70;;;0.70;;
6727;SDS011;3401;52.504;13.430;2022-10-16T13:18:19;0.90;;;0.90;;
6727;SDS011;3401;52.504;13.430;2022-10-16T13:21:02;1.53;;;1.00;;
6727;SDS011;3401;52.504;13.430;2022-10-16T13:23:37;1.00;;;0.80;;
6727;SDS011;3401;52.504;13.430;2022-10-16T13:26:17;2.90;;;0.83;;
6727;SDS011;3401;52.504;13.430;2022-10-16T13:28:54;2.20;;;0.47;;
6727;SDS011;3401;52.504;13.430;2022-10-16T13:31:29;1.17;;;0.83;;
6727;SDS011;3401;52.504;13.430;2022-10-16T13:33:59;2.30;;;1.27;;
6727;SDS011;3401;52.504;13.430;2022-10-16T13:36:28;1.83;;;1.60;;
6727;SDS011;3401;52.504;13.430;2022-10-16T13:39:07;0.70;;;0.70;;
6727;SDS011;3401;52.504;13.430;2022-10-16T13:41:40;0.70;;;0.50;;
6727;SDS011;3401;52.504;13.430;2022-10-16T13:44:12;2.60;;;0.83;;
6727;SDS011;3401;52.504;13.430;2022-10-16T13:47:01;1.63;;;0.70;;
6727;SDS011;3401;52.504;13.430;2022-10-16T13:49:30;3.10;;;0.70;;
6727;SDS011;3401;52.504;13.430;2022-10-16T13:51:59;0.60;;;0.60;;
6727;SDS011;3401;52.504;13.430;2022-10-16T13:54:28;0.70;;;0.50;;
6727;SDS011;3401;52.504;13.430;2022-10-16T13:57:04;2.97;;;0.70;;
6727;SDS011;3401;52.504;13.430;2022-10-16T13:59:52;0.60;;;0.60;;
6727;SDS011;3401;52.504;13.430;2022-10-16T14:02:25;2.67;;;0.70;;
6727;SDS011;3401;52.504;13.430;2022-10-16T14:05:01;0.80;;;0.50;;
6727;SDS011;3401;52.504;13.430;2022-10-16T14:07:32;1.33;;;1.30;;
6727;SDS011;3401;52.504;13.430;2022-10-16T14:10:04;1.37;;;1.00;;
6727;SDS011;3401;52.504;13.430;2022-10-16T14:12:34;2.00;;;1.00;;
6727;SDS011;3401;52.504;13.430;2022-10-16T14:15:04;0.60;;;0.60;;
6727;SDS011;3401;52.504;13.430;2022-10-16T14:17:45;0.60;;;0.60;;
6727;SDS011;3401;52.504;13.430;2022-10-16T14:20:20;4.63;;;0.70;;
6727;SDS011;3401;52.504;13.430;2022-10-16T14:23:04;1.20;;;0.83;;
6727;SDS011;3401;52.504;13.430;2022-10-16T14:25:51;0.50;;;0.50;;
6727;SDS011;3401;52.504;13.430;2022-10-16T14:28:20;0.70;;;0.70;;
6727;SDS011;3401;52.504;13.430;2022-10-16T14:30:50;0.67;;;0.50;;
6727;SDS011;3401;52.504;13.430;2022-10-16T14:33:32;0.97;;;0.57;;
6727;SDS011;3401;52.504;13.430;2022-10-16T14:36:03;1.70;;;0.80;;
6727;SDS011;3401;52.504;13.430;2022-10-16T14:38:34;0.80;;;0.50;;
6727;SDS011;3401;52.504;13.430;2022-10-16T14:41:02;0.70;;;0.70;;
6727;SDS011;3401;52.504;13.430;2022-10-16T14:43:32;1.23;;;0.50;;
6727;SDS011;3401;52.504;13.430;2022-10-16T14:46:02;0.60;;;0.53;;
6727;SDS011;3401;52.504;13.430;2022-10-16T14:48:39;0.70;;;0.70;;
6727;SDS011;3401;52.504;13.430;2022-10-16T14:51:08;0.50;;;0.50;;
6727;SDS011;3401;52.504;13.430;2022-10-16T14:53:52;1.63;;;1.23;;
6727;SDS011;3401;52.504;13.430;2022-10-16T14:56:27;7.93;;;0.80;;
6727;SDS011;3401;52.504;13.430;2022-10-16T14:59:01;0.50;;;0.50;;
6727;SDS011;3401;52.504;13.430;2022-10-16T15:01:31;0.93;;;0.70;;
6727;SDS011;3401;52.504;13.430;2022-10-16T15:04:08;0.50;;;0.50;;
6727;SDS011;3401;52.504;13.430;2022-10-16T15:06:37;0.80;;;0.53;;
6727;SDS011;3401;52.504;13.430;2022-10-16T15:09:07;2.13;;;0.60;;
6727;SDS011;3401;52.504;13.430;2022-10-16T15:11:36;1.63;;;0.80;;
6727;SDS011;3401;52.504;13.430;2022-10-16T15:14:08;0.90;;;0.70;;
6727;SDS011;3401;52.504;13.430;2022-10-16T15:16:37;4.33;;;0.60;;
6727;SDS011;3401;52.504;13.430;2022-10-16T15:19:12;1.33;;;0.70;;
6727;SDS011;3401;52.504;13.430;2022-10-16T15:21:55;0.73;;;0.70;;
6727;SDS011;3401;52.504;13.430;2022-10-16T15:24:33;0.80;;;0.80;;
6727;SDS011;3401;52.504;13.430;2022-10-16T15:31:14;0.70;;;0.70;;
6727;SDS011;3401;52.504;13.430;2022-10-16T15:33:43;0.70;;;0.70;;
6727;SDS011;3401;52.504;13.430;2022-10-16T15:36:15;0.60;;;0.60;;
6727;SDS011;3401;52.504;13.430;2022-10-16T15:38:51;1.77;;;0.70;;
6727;SDS011;3401;52.504;13.430;2022-10-16T15:45:13;2.63;;;0.70;;
6727;SDS011;3401;52.504;13.430;2022-10-16T15:47:53;1.73;;;0.80;;
6727;SDS011;3401;52.504;13.430;2022-10-16T15:51:16;2.40;;;0.73;;